sensor_id;sensor_type;location;lat;lon;timestamp;temperature;humidity
39023;DHT22;25908;51.984;5.928;2023-02-28T00:00:15;4.50;96.70
39023;DHT22;25908;51.984;5.928;2023-02-28T00:02:43;4.50;96.60
39023;DHT22;25908;51.984;5.928;2023-02-28T00:05:10;4.50;96.40
39023;DHT22;25908;51.984;5.928;2023-02-28T00:07:36;4.60;96.40
39023;DHT22;25908;51.984;5.928;2023-02-28T00:10:04;4.60;96.30
39023;DHT22;25908;51.984;5.928;2023-02-28T00:12:32;4.60;96.30
39023;DHT22;25908;51.984;5.928;2023-02-28T00:14:57;4.70;96.30
39023;DHT22;25908;51.984;5.928;2023-02-28T00:17:23;4.60;96.20
39023;DHT22;25908;51.984;5.928;2023-02-28T00:19:49;4.60;96.30
39023;DHT22;25908;51.984;5.928;2023-02-28T00:22:16;4.70;96.20
39023;DHT22;25908;51.984;5.928;2023-02-28T00:24:42;4.70;96.10
39023;DHT22;25908;51.984;5.928;2023-02-28T00:27:07;4.70;96.00
39023;DHT22;25908;51.984;5.928;2023-02-28T00:29:33;4.70;96.20
39023;DHT22;25908;51.984;5.928;2023-02-28T00:31:58;4.80;95.80
39023;DHT22;25908;51.984;5.928;2023-02-28T00:34:24;4.80;95.70
39023;DHT22;25908;51.984;5.928;2023-02-28T00:36:49;4.80;95.60
39023;DHT22;25908;51.984;5.928;2023-02-28T00:39:15;4.80;95.60
39023;DHT22;25908;51.984;5.928;2023-02-28T00:41:41;4.80;95.60
39023;DHT22;25908;51.984;5.928;2023-02-28T00:44:06;4.80;95.50
39023;DHT22;25908;51.984;5.928;2023-02-28T00:46:32;4.80;95.70
39023;DHT22;25908;51.984;5.928;2023-02-28T00:48:57;4.80;95.70
39023;DHT22;25908;51.984;5.928;2023-02-28T00:51:23;4.80;95.60
39023;DHT22;25908;51.984;5.928;2023-02-28T00:53:49;4.90;95.80
39023;DHT22;25908;51.984;5.928;2023-02-28T00:56:14;4.90;95.70
39023;DHT22;25908;51.984;5.928;2023-02-28T00:58:40;4.90;95.50
39023;DHT22;25908;51.984;5.928;2023-02-28T01:01:05;4.90;95.60
39023;DHT22;25908;51.984;5.928;2023-02-28T01:03:31;4.90;95.70
39023;DHT22;25908;51.984;5.928;2023-02-28T01:05:57;4.90;95.70
39023;DHT22;25908;51.984;5.928;2023-02-28T01:08:23;4.90;95.80
39023;DHT22;25908;51.984;5.928;2023-02-28T01:10:49;4.90;95.70
39023;DHT22;25908;51.984;5.928;2023-02-28T01:13:15;4.90;95.60
39023;DHT22;25908;51.984;5.928;2023-02-28T01:15:45;5.00;95.60
39023;DHT22;25908;51.984;5.928;2023-02-28T01:18:11;5.00;95.60
39023;DHT22;25908;51.984;5.928;2023-02-28T01:20:37;5.00;95.60
39023;DHT22;25908;51.984;5.928;2023-02-28T01:23:03;5.00;95.50
39023;DHT22;25908;51.984;5.928;2023-02-28T01:25:29;5.00;95.30
39023;DHT22;25908;51.984;5.928;2023-02-28T01:27:54;5.00;95.30
39023;DHT22;25908;51.984;5.928;2023-02-28T01:30:20;5.00;95.30
39023;DHT22;25908;51.984;5.928;2023-02-28T01:32:46;5.00;95.20
39023;DHT22;25908;51.984;5.928;2023-02-28T01:35:11;5.00;95.20
39023;DHT22;25908;51.984;5.928;2023-02-28T01:37:37;5.00;95.30
39023;DHT22;25908;51.984;5.928;2023-02-28T01:40:03;5.10;95.40
39023;DHT22;25908;51.984;5.928;2023-02-28T01:42:28;5.00;95.30
39023;DHT22;25908;51.984;5.928;2023-02-28T01:45:06;5.00;95.70
39023;DHT22;25908;51.984;5.928;2023-02-28T01:47:39;5.10;95.60
39023;DHT22;25908;51.984;5.928;2023-02-28T01:50:12;5.10;95.60
39023;DHT22;25908;51.984;5.928;2023-02-28T01:52:38;5.00;95.60
39023;DHT22;25908;51.984;5.928;2023-02-28T01:55:06;5.00;95.90
39023;DHT22;25908;51.984;5.928;2023-02-28T01:57:35;5.00;96.00
39023;DHT22;25908;51.984;5.928;2023-02-28T02:00:04;5.00;96.10
39023;DHT22;25908;51.984;5.928;2023-02-28T02:02:32;5.00;96.20
39023;DHT22;25908;51.984;5.928;2023-02-28T02:05:05;5.00;96.40
39023;DHT22;25908;51.984;5.928;2023-02-28T02:07:37;5.00;96.50
39023;DHT22;25908;51.984;5.928;2023-02-28T02:10:18;4.90;96.50
39023;DHT22;25908;51.984;5.928;2023-02-28T02:15:53;4.90;96.90
39023;DHT22;25908;51.984;5.928;2023-02-28T02:18:46;4.90;96.90
39023;DHT22;25908;51.984;5.928;2023-02-28T02:37:47;4.70;96.90
39023;DHT22;25908;51.984;5.928;2023-02-28T02:40:25;4.80;96.90
39023;DHT22;25908;51.984;5.928;2023-02-28T02:43:07;4.80;96.50
39023;DHT22;25908;51.984;5.928;2023-02-28T02:45:49;4.80;96.60
39023;DHT22;25908;51.984;5.928;2023-02-28T02:48:19;4.80;95.80
39023;DHT22;25908;51.984;5.928;2023-02-28T02:50:50;4.80;96.00
39023;DHT22;25908;51.984;5.928;2023-02-28T02:53:17;4.80;95.70
39023;DHT22;25908;51.984;5.928;2023-02-28T02:55:47;4.80;95.40
39023;DHT22;25908;51.984;5.928;2023-02-28T02:58:18;4.80;95.40
39023;DHT22;25908;51.984;5.928;2023-02-28T03:00:50;4.80;95.40
39023;DHT22;25908;51.984;5.928;2023-02-28T03:03:19;4.80;95.20
39023;DHT22;25908;51.984;5.928;2023-02-28T03:05:55;4.70;95.30
39023;DHT22;25908;51.984;5.928;2023-02-28T03:08:22;4.80;95.50
39023;DHT22;25908;51.984;5.928;2023-02-28T03:11:02;4.70;95.30
39023;DHT22;25908;51.984;5.928;2023-02-28T03:21:20;4.80;95.40
39023;DHT22;25908;51.984;5.928;2023-02-28T03:23:56;4.70;94.80
39023;DHT22;25908;51.984;5.928;2023-02-28T03:26:26;4.80;94.80
39023;DHT22;25908;51.984;5.928;2023-02-28T03:34:08;4.80;94.30
39023;DHT22;25908;51.984;5.928;2023-02-28T03:36:38;4.80;94.30
39023;DHT22;25908;51.984;5.928;2023-02-28T03:39:19;4.70;93.70
39023;DHT22;25908;51.984;5.928;2023-02-28T03:41:52;4.70;94.00
39023;DHT22;25908;51.984;5.928;2023-02-28T03:44:24;4.70;94.10
39023;DHT22;25908;51.984;5.928;2023-02-28T03:47:03;4.70;94.00
39023;DHT22;25908;51.984;5.928;2023-02-28T03:49:53;4.80;93.90
39023;DHT22;25908;51.984;5.928;2023-02-28T03:52:23;4.80;93.70
39023;DHT22;25908;51.984;5.928;2023-02-28T03:54:54;4.80;93.50
39023;DHT22;25908;51.984;5.928;2023-02-28T04:00:45;4.80;92.30
39023;DHT22;25908;51.984;5.928;2023-02-28T04:03:02;4.80;91.50
39023;DHT22;25908;51.984;5.928;2023-02-28T04:05:28;4.80;91.70
39023;DHT22;25908;51.984;5.928;2023-02-28T04:07:54;4.80;91.50
39023;DHT22;25908;51.984;5.928;2023-02-28T04:10:28;4.80;91.20
39023;DHT22;25908;51.984;5.928;2023-02-28T04:12:53;4.90;91.00
39023;DHT22;25908;51.984;5.928;2023-02-28T04:15:19;4.90;90.20
39023;DHT22;25908;51.984;5.928;2023-02-28T04:17:48;4.90;90.10
39023;DHT22;25908;51.984;5.928;2023-02-28T04:20:13;4.90;89.80
39023;DHT22;25908;51.984;5.928;2023-02-28T04:22:39;4.90;89.30
39023;DHT22;25908;51.984;5.928;2023-02-28T04:25:05;4.90;88.90
39023;DHT22;25908;51.984;5.928;2023-02-28T04:27:31;4.90;88.20
39023;DHT22;25908;51.984;5.928;2023-02-28T04:29:56;4.90;88.40
39023;DHT22;25908;51.984;5.928;2023-02-28T04:32:22;4.90;87.80
39023;DHT22;25908;51.984;5.928;2023-02-28T04:34:47;4.90;87.20
39023;DHT22;25908;51.984;5.928;2023-02-28T04:37:13;4.90;87.40
39023;DHT22;25908;51.984;5.928;2023-02-28T04:39:39;4.90;87.40
39023;DHT22;25908;51.984;5.928;2023-02-28T04:42:05;4.90;87.50
39023;DHT22;25908;51.984;5.928;2023-02-28T04:44:30;4.90;87.80
39023;DHT22;25908;51.984;5.928;2023-02-28T04:46:56;4.90;88.20
39023;DHT22;25908;51.984;5.928;2023-02-28T04:49:22;4.90;88.20
39023;DHT22;25908;51.984;5.928;2023-02-28T04:51:47;4.90;88.30
39023;DHT22;25908;51.984;5.928;2023-02-28T04:54:15;4.90;88.40
39023;DHT22;25908;51.984;5.928;2023-02-28T04:56:41;4.90;88.80
39023;DHT22;25908;51.984;5.928;2023-02-28T04:59:07;4.90;89.50
39023;DHT22;25908;51.984;5.928;2023-02-28T05:01:34;4.90;90.00
39023;DHT22;25908;51.984;5.928;2023-02-28T05:04:01;4.90;90.10
39023;DHT22;25908;51.984;5.928;2023-02-28T05:06:29;4.80;90.40
39023;DHT22;25908;51.984;5.928;2023-02-28T05:08:55;4.80;90.70
39023;DHT22;25908;51.984;5.928;2023-02-28T05:13:52;4.80;91.00
39023;DHT22;25908;51.984;5.928;2023-02-28T05:16:19;4.80;90.90
39023;DHT22;25908;51.984;5.928;2023-02-28T05:18:46;4.80;91.20
39023;DHT22;25908;51.984;5.928;2023-02-28T05:23:51;4.70;91.70
39023;DHT22;25908;51.984;5.928;2023-02-28T05:26:17;4.70;91.60
39023;DHT22;25908;51.984;5.928;2023-02-28T05:28:43;4.70;91.60
39023;DHT22;25908;51.984;5.928;2023-02-28T05:31:11;4.70;91.60
39023;DHT22;25908;51.984;5.928;2023-02-28T05:33:36;4.70;91.80
39023;DHT22;25908;51.984;5.928;2023-02-28T05:36:04;4.80;91.70
39023;DHT22;25908;51.984;5.928;2023-02-28T05:38:29;4.70;91.40
39023;DHT22;25908;51.984;5.928;2023-02-28T05:40:55;4.70;91.20
39023;DHT22;25908;51.984;5.928;2023-02-28T05:43:21;4.80;91.30
39023;DHT22;25908;51.984;5.928;2023-02-28T05:45:47;4.70;91.30
39023;DHT22;25908;51.984;5.928;2023-02-28T05:48:12;4.80;91.40
39023;DHT22;25908;51.984;5.928;2023-02-28T05:50:38;4.80;91.40
39023;DHT22;25908;51.984;5.928;2023-02-28T05:53:04;4.80;91.30
39023;DHT22;25908;51.984;5.928;2023-02-28T05:55:29;4.80;91.20
39023;DHT22;25908;51.984;5.928;2023-02-28T05:57:55;4.80;90.80
39023;DHT22;25908;51.984;5.928;2023-02-28T06:00:21;4.80;90.70
39023;DHT22;25908;51.984;5.928;2023-02-28T06:02:47;4.80;90.80
39023;DHT22;25908;51.984;5.928;2023-02-28T06:05:17;4.80;90.90
39023;DHT22;25908;51.984;5.928;2023-02-28T06:07:43;4.80;90.80
39023;DHT22;25908;51.984;5.928;2023-02-28T06:10:10;4.80;90.90
39023;DHT22;25908;51.984;5.928;2023-02-28T06:12:37;4.70;90.80
39023;DHT22;25908;51.984;5.928;2023-02-28T06:15:03;4.70;90.90
39023;DHT22;25908;51.984;5.928;2023-02-28T06:17:29;4.70;91.10
39023;DHT22;25908;51.984;5.928;2023-02-28T06:19:54;4.70;91.30
39023;DHT22;25908;51.984;5.928;2023-02-28T06:22:20;4.60;91.40
39023;DHT22;25908;51.984;5.928;2023-02-28T06:24:46;4.60;91.30
39023;DHT22;25908;51.984;5.928;2023-02-28T06:27:11;4.60;91.40
39023;DHT22;25908;51.984;5.928;2023-02-28T06:29:37;4.60;91.40
39023;DHT22;25908;51.984;5.928;2023-02-28T06:32:05;4.70;91.50
39023;DHT22;25908;51.984;5.928;2023-02-28T06:34:31;4.60;91.60
39023;DHT22;25908;51.984;5.928;2023-02-28T06:36:56;4.70;91.70
39023;DHT22;25908;51.984;5.928;2023-02-28T06:39:22;4.70;91.80
39023;DHT22;25908;51.984;5.928;2023-02-28T06:41:48;4.70;91.70
39023;DHT22;25908;51.984;5.928;2023-02-28T06:44:15;4.70;91.50
39023;DHT22;25908;51.984;5.928;2023-02-28T06:46:42;4.70;90.70
39023;DHT22;25908;51.984;5.928;2023-02-28T06:49:08;4.70;90.30
39023;DHT22;25908;51.984;5.928;2023-02-28T06:51:35;4.70;90.60
39023;DHT22;25908;51.984;5.928;2023-02-28T06:54:01;4.80;90.30
39023;DHT22;25908;51.984;5.928;2023-02-28T06:56:27;4.80;90.00
39023;DHT22;25908;51.984;5.928;2023-02-28T06:58:53;4.80;89.60
39023;DHT22;25908;51.984;5.928;2023-02-28T07:01:19;4.80;88.50
39023;DHT22;25908;51.984;5.928;2023-02-28T07:03:45;4.80;89.00
39023;DHT22;25908;51.984;5.928;2023-02-28T07:06:11;4.90;89.70
39023;DHT22;25908;51.984;5.928;2023-02-28T07:08:37;4.90;89.50
39023;DHT22;25908;51.984;5.928;2023-02-28T07:11:03;4.90;89.10
39023;DHT22;25908;51.984;5.928;2023-02-28T07:13:29;4.90;89.00
39023;DHT22;25908;51.984;5.928;2023-02-28T07:16:00;5.00;89.30
39023;DHT22;25908;51.984;5.928;2023-02-28T07:18:26;5.00;89.10
39023;DHT22;25908;51.984;5.928;2023-02-28T07:20:52;5.00;88.40
39023;DHT22;25908;51.984;5.928;2023-02-28T07:23:18;5.00;87.90
39023;DHT22;25908;51.984;5.928;2023-02-28T07:25:44;5.00;87.80
39023;DHT22;25908;51.984;5.928;2023-02-28T07:28:12;5.00;87.50
39023;DHT22;25908;51.984;5.928;2023-02-28T07:30:38;5.00;87.20
39023;DHT22;25908;51.984;5.928;2023-02-28T07:33:03;5.00;87.20
39023;DHT22;25908;51.984;5.928;2023-02-28T07:35:29;5.00;87.80
39023;DHT22;25908;51.984;5.928;2023-02-28T07:37:56;5.00;87.00
39023;DHT22;25908;51.984;5.928;2023-02-28T07:40:22;5.00;86.70
39023;DHT22;25908;51.984;5.928;2023-02-28T07:42:47;5.00;86.10
39023;DHT22;25908;51.984;5.928;2023-02-28T07:45:13;5.00;86.40
39023;DHT22;25908;51.984;5.928;2023-02-28T07:47:39;5.10;85.30
39023;DHT22;25908;51.984;5.928;2023-02-28T07:50:06;5.10;85.20
39023;DHT22;25908;51.984;5.928;2023-02-28T07:52:32;5.20;84.60
39023;DHT22;25908;51.984;5.928;2023-02-28T07:54:57;5.50;84.80
39023;DHT22;25908;51.984;5.928;2023-02-28T07:57:23;6.10;83.00
39023;DHT22;25908;51.984;5.928;2023-02-28T07:59:49;6.70;79.80
39023;DHT22;25908;51.984;5.928;2023-02-28T08:02:16;7.20;74.80
39023;DHT22;25908;51.984;5.928;2023-02-28T08:04:42;7.40;70.90
39023;DHT22;25908;51.984;5.928;2023-02-28T08:07:08;7.70;70.70
39023;DHT22;25908;51.984;5.928;2023-02-28T08:09:37;8.10;67.90
39023;DHT22;25908;51.984;5.928;2023-02-28T08:12:02;8.40;64.10
39023;DHT22;25908;51.984;5.928;2023-02-28T08:14:28;8.70;62.40
39023;DHT22;25908;51.984;5.928;2023-02-28T08:16:53;9.00;60.80
39023;DHT22;25908;51.984;5.928;2023-02-28T08:19:19;9.10;58.40
39023;DHT22;25908;51.984;5.928;2023-02-28T08:21:45;9.20;57.10
39023;DHT22;25908;51.984;5.928;2023-02-28T08:24:10;9.40;55.40
39023;DHT22;25908;51.984;5.928;2023-02-28T08:26:36;9.40;51.40
39023;DHT22;25908;51.984;5.928;2023-02-28T08:29:01;9.20;51.70
39023;DHT22;25908;51.984;5.928;2023-02-28T08:31:27;9.20;52.40
39023;DHT22;25908;51.984;5.928;2023-02-28T08:33:52;9.20;50.40
39023;DHT22;25908;51.984;5.928;2023-02-28T08:36:21;9.40;51.00
39023;DHT22;25908;51.984;5.928;2023-02-28T08:38:46;9.60;50.50
39023;DHT22;25908;51.984;5.928;2023-02-28T08:41:12;9.80;50.40
39023;DHT22;25908;51.984;5.928;2023-02-28T08:43:39;10.00;49.80
39023;DHT22;25908;51.984;5.928;2023-02-28T08:46:05;10.30;48.30
39023;DHT22;25908;51.984;5.928;2023-02-28T08:48:33;10.40;47.50
39023;DHT22;25908;51.984;5.928;2023-02-28T08:51:05;10.30;47.40
39023;DHT22;25908;51.984;5.928;2023-02-28T08:53:31;10.10;46.70
39023;DHT22;25908;51.984;5.928;2023-02-28T08:56:06;10.00;46.80
39023;DHT22;25908;51.984;5.928;2023-02-28T08:58:32;9.80;47.70
39023;DHT22;25908;51.984;5.928;2023-02-28T09:01:00;9.80;48.10
39023;DHT22;25908;51.984;5.928;2023-02-28T09:03:26;9.80;47.40
39023;DHT22;25908;51.984;5.928;2023-02-28T09:06:00;9.80;47.60
39023;DHT22;25908;51.984;5.928;2023-02-28T09:08:28;10.00;47.30
39023;DHT22;25908;51.984;5.928;2023-02-28T09:10:54;10.30;46.50
39023;DHT22;25908;51.984;5.928;2023-02-28T09:13:21;10.60;45.30
39023;DHT22;25908;51.984;5.928;2023-02-28T09:15:47;10.80;45.80
39023;DHT22;25908;51.984;5.928;2023-02-28T09:18:13;10.90;45.20
39023;DHT22;25908;51.984;5.928;2023-02-28T09:20:40;10.90;45.60
39023;DHT22;25908;51.984;5.928;2023-02-28T09:23:11;11.00;44.20
39023;DHT22;25908;51.984;5.928;2023-02-28T09:25:37;10.90;43.70
39023;DHT22;25908;51.984;5.928;2023-02-28T09:28:03;11.00;42.20
39023;DHT22;25908;51.984;5.928;2023-02-28T09:30:30;10.80;41.50
39023;DHT22;25908;51.984;5.928;2023-02-28T09:32:55;10.80;41.60
39023;DHT22;25908;51.984;5.928;2023-02-28T09:35:22;10.80;42.00
39023;DHT22;25908;51.984;5.928;2023-02-28T09:37:50;10.70;42.00
39023;DHT22;25908;51.984;5.928;2023-02-28T09:40:17;10.80;42.30
39023;DHT22;25908;51.984;5.928;2023-02-28T09:42:47;10.90;42.20
39023;DHT22;25908;51.984;5.928;2023-02-28T09:45:30;11.10;42.50
39023;DHT22;25908;51.984;5.928;2023-02-28T09:48:10;11.10;42.20
39023;DHT22;25908;51.984;5.928;2023-02-28T09:50:38;11.20;42.20
39023;DHT22;25908;51.984;5.928;2023-02-28T09:53:29;11.30;41.80
39023;DHT22;25908;51.984;5.928;2023-02-28T09:58:49;11.30;41.60
39023;DHT22;25908;51.984;5.928;2023-02-28T10:01:42;11.30;42.70
39023;DHT22;25908;51.984;5.928;2023-02-28T10:04:46;11.20;42.00
39023;DHT22;25908;51.984;5.928;2023-02-28T10:10:44;10.90;41.10
39023;DHT22;25908;51.984;5.928;2023-02-28T10:13:33;10.60;41.90
39023;DHT22;25908;51.984;5.928;2023-02-28T10:16:10;10.60;42.30
39023;DHT22;25908;51.984;5.928;2023-02-28T10:19:26;10.50;41.80
39023;DHT22;25908;51.984;5.928;2023-02-28T10:21:39;10.40;40.90
39023;DHT22;25908;51.984;5.928;2023-02-28T10:24:35;10.20;40.80
39023;DHT22;25908;51.984;5.928;2023-02-28T10:27:23;9.90;41.20
39023;DHT22;25908;51.984;5.928;2023-02-28T10:29:51;9.90;41.60
39023;DHT22;25908;51.984;5.928;2023-02-28T10:32:20;9.90;41.30
39023;DHT22;25908;51.984;5.928;2023-02-28T10:37:32;10.00;41.80
39023;DHT22;25908;51.984;5.928;2023-02-28T10:40:03;9.90;41.90
39023;DHT22;25908;51.984;5.928;2023-02-28T10:42:32;9.70;42.50
39023;DHT22;25908;51.984;5.928;2023-02-28T10:47:34;9.40;43.30
39023;DHT22;25908;51.984;5.928;2023-02-28T10:50:02;9.40;43.30
39023;DHT22;25908;51.984;5.928;2023-02-28T10:52:39;9.40;44.40
39023;DHT22;25908;51.984;5.928;2023-02-28T10:55:22;9.40;44.00
39023;DHT22;25908;51.984;5.928;2023-02-28T10:57:49;9.40;43.90
39023;DHT22;25908;51.984;5.928;2023-02-28T11:00:19;9.30;43.80
39023;DHT22;25908;51.984;5.928;2023-02-28T11:02:45;9.00;44.70
39023;DHT22;25908;51.984;5.928;2023-02-28T11:05:32;8.90;45.00
39023;DHT22;25908;51.984;5.928;2023-02-28T11:08:13;8.80;45.60
39023;DHT22;25908;51.984;5.928;2023-02-28T11:10:39;8.70;45.70
39023;DHT22;25908;51.984;5.928;2023-02-28T11:13:17;8.60;45.70
39023;DHT22;25908;51.984;5.928;2023-02-28T11:15:51;8.40;46.20
39023;DHT22;25908;51.984;5.928;2023-02-28T11:18:30;8.40;46.40
39023;DHT22;25908;51.984;5.928;2023-02-28T11:21:02;8.40;46.70
39023;DHT22;25908;51.984;5.928;2023-02-28T11:23:31;8.40;46.90
39023;DHT22;25908;51.984;5.928;2023-02-28T11:26:00;8.40;46.70
39023;DHT22;25908;51.984;5.928;2023-02-28T11:28:36;8.40;45.20
39023;DHT22;25908;51.984;5.928;2023-02-28T11:31:21;8.30;45.80
39023;DHT22;25908;51.984;5.928;2023-02-28T11:33:52;8.10;46.30
39023;DHT22;25908;51.984;5.928;2023-02-28T11:38:47;8.20;47.80
39023;DHT22;25908;51.984;5.928;2023-02-28T11:46:33;8.30;46.30
39023;DHT22;25908;51.984;5.928;2023-02-28T11:52:02;8.20;46.00
39023;DHT22;25908;51.984;5.928;2023-02-28T11:55:02;8.20;46.50
39023;DHT22;25908;51.984;5.928;2023-02-28T11:57:56;8.10;47.00
39023;DHT22;25908;51.984;5.928;2023-02-28T12:00:49;8.10;46.60
39023;DHT22;25908;51.984;5.928;2023-02-28T12:03:21;8.00;46.00
39023;DHT22;25908;51.984;5.928;2023-02-28T12:05:54;7.80;46.50
39023;DHT22;25908;51.984;5.928;2023-02-28T12:08:42;7.60;47.10
39023;DHT22;25908;51.984;5.928;2023-02-28T12:13:57;7.50;47.60
39023;DHT22;25908;51.984;5.928;2023-02-28T12:16:47;7.60;47.80
39023;DHT22;25908;51.984;5.928;2023-02-28T12:19:39;7.60;47.60
39023;DHT22;25908;51.984;5.928;2023-02-28T12:22:21;7.70;47.90
39023;DHT22;25908;51.984;5.928;2023-02-28T12:25:00;7.70;47.90
39023;DHT22;25908;51.984;5.928;2023-02-28T12:27:30;7.70;47.80
39023;DHT22;25908;51.984;5.928;2023-02-28T12:30:21;7.70;47.90
39023;DHT22;25908;51.984;5.928;2023-02-28T12:32:53;7.70;46.70
39023;DHT22;25908;51.984;5.928;2023-02-28T12:35:28;7.50;46.20
39023;DHT22;25908;51.984;5.928;2023-02-28T12:38:05;7.40;46.40
39023;DHT22;25908;51.984;5.928;2023-02-28T12:40:48;7.30;47.50
39023;DHT22;25908;51.984;5.928;2023-02-28T12:43:17;7.30;47.70
39023;DHT22;25908;51.984;5.928;2023-02-28T12:45:52;7.30;47.30
39023;DHT22;25908;51.984;5.928;2023-02-28T12:48:33;7.30;47.00
39023;DHT22;25908;51.984;5.928;2023-02-28T12:51:03;7.30;47.00
39023;DHT22;25908;51.984;5.928;2023-02-28T12:58:54;7.20;46.90
39023;DHT22;25908;51.984;5.928;2023-02-28T13:09:15;7.20;47.30
39023;DHT22;25908;51.984;5.928;2023-02-28T13:11:47;7.10;47.60
39023;DHT22;25908;51.984;5.928;2023-02-28T13:14:22;7.20;47.80
39023;DHT22;25908;51.984;5.928;2023-02-28T13:19:43;7.20;47.80
39023;DHT22;25908;51.984;5.928;2023-02-28T13:22:35;7.20;47.60
39023;DHT22;25908;51.984;5.928;2023-02-28T13:25:49;7.20;46.70
39023;DHT22;25908;51.984;5.928;2023-02-28T13:27:57;7.20;46.90
39023;DHT22;25908;51.984;5.928;2023-02-28T13:33:29;7.10;47.70
39023;DHT22;25908;51.984;5.928;2023-02-28T13:38:45;7.10;48.20
39023;DHT22;25908;51.984;5.928;2023-02-28T13:44:09;7.10;46.90
39023;DHT22;25908;51.984;5.928;2023-02-28T13:51:52;7.10;47.90
39023;DHT22;25908;51.984;5.928;2023-02-28T13:59:38;7.10;48.40
39023;DHT22;25908;51.984;5.928;2023-02-28T14:07:26;7.30;48.50
39023;DHT22;25908;51.984;5.928;2023-02-28T14:09:57;7.30;48.30
39023;DHT22;25908;51.984;5.928;2023-02-28T14:18:01;7.30;48.00
39023;DHT22;25908;51.984;5.928;2023-02-28T14:20:31;7.30;48.40
39023;DHT22;25908;51.984;5.928;2023-02-28T14:26:19;7.20;48.10
39023;DHT22;25908;51.984;5.928;2023-02-28T14:34:44;7.10;49.00
39023;DHT22;25908;51.984;5.928;2023-02-28T14:37:26;7.10;48.70
39023;DHT22;25908;51.984;5.928;2023-02-28T14:39:53;7.10;49.30
39023;DHT22;25908;51.984;5.928;2023-02-28T14:42:29;7.10;49.70
39023;DHT22;25908;51.984;5.928;2023-02-28T14:44:55;7.20;49.50
39023;DHT22;25908;51.984;5.928;2023-02-28T14:47:23;7.20;49.00
39023;DHT22;25908;51.984;5.928;2023-02-28T14:49:51;7.20;49.10
39023;DHT22;25908;51.984;5.928;2023-02-28T14:52:21;7.20;49.30
39023;DHT22;25908;51.984;5.928;2023-02-28T14:55:15;7.20;48.10
39023;DHT22;25908;51.984;5.928;2023-02-28T14:57:54;7.20;48.70
39023;DHT22;25908;51.984;5.928;2023-02-28T15:00:29;7.20;49.00
39023;DHT22;25908;51.984;5.928;2023-02-28T15:02:56;7.20;49.40
39023;DHT22;25908;51.984;5.928;2023-02-28T15:05:31;7.30;48.70
39023;DHT22;25908;51.984;5.928;2023-02-28T15:08:23;7.30;48.70
39023;DHT22;25908;51.984;5.928;2023-02-28T15:11:00;7.20;49.00
39023;DHT22;25908;51.984;5.928;2023-02-28T15:13:38;7.30;49.60
39023;DHT22;25908;51.984;5.928;2023-02-28T15:16:08;7.30;49.10
39023;DHT22;25908;51.984;5.928;2023-02-28T15:19:05;7.40;49.30
39023;DHT22;25908;51.984;5.928;2023-02-28T15:21:39;7.40;48.60
39023;DHT22;25908;51.984;5.928;2023-02-28T15:24:17;7.30;48.50
39023;DHT22;25908;51.984;5.928;2023-02-28T15:27:04;7.30;48.60
39023;DHT22;25908;51.984;5.928;2023-02-28T15:29:37;7.30;48.90
39023;DHT22;25908;51.984;5.928;2023-02-28T15:32:15;7.40;48.40
39023;DHT22;25908;51.984;5.928;2023-02-28T15:34:44;7.40;48.30
39023;DHT22;25908;51.984;5.928;2023-02-28T15:40:17;7.30;48.20
39023;DHT22;25908;51.984;5.928;2023-02-28T15:45:38;7.30;48.20
39023;DHT22;25908;51.984;5.928;2023-02-28T15:48:13;7.30;47.90
39023;DHT22;25908;51.984;5.928;2023-02-28T15:50:40;7.30;48.50
39023;DHT22;25908;51.984;5.928;2023-02-28T15:53:16;7.30;48.80
39023;DHT22;25908;51.984;5.928;2023-02-28T15:55:42;7.30;48.80
39023;DHT22;25908;51.984;5.928;2023-02-28T15:58:10;7.30;48.80
39023;DHT22;25908;51.984;5.928;2023-02-28T16:00:38;7.30;48.80
39023;DHT22;25908;51.984;5.928;2023-02-28T16:03:26;7.30;48.80
39023;DHT22;25908;51.984;5.928;2023-02-28T16:08:56;7.30;49.60
39023;DHT22;25908;51.984;5.928;2023-02-28T16:11:22;7.30;49.30
39023;DHT22;25908;51.984;5.928;2023-02-28T16:13:48;7.30;49.00
39023;DHT22;25908;51.984;5.928;2023-02-28T16:16:21;7.30;49.40
39023;DHT22;25908;51.984;5.928;2023-02-28T16:18:46;7.30;49.10
39023;DHT22;25908;51.984;5.928;2023-02-28T16:21:12;7.30;49.30
39023;DHT22;25908;51.984;5.928;2023-02-28T16:23:38;7.20;49.50
39023;DHT22;25908;51.984;5.928;2023-02-28T16:26:04;7.20;49.60
39023;DHT22;25908;51.984;5.928;2023-02-28T16:28:33;7.20;50.00
39023;DHT22;25908;51.984;5.928;2023-02-28T16:31:00;7.30;50.10
39023;DHT22;25908;51.984;5.928;2023-02-28T16:33:30;7.20;50.30
39023;DHT22;25908;51.984;5.928;2023-02-28T16:35:57;7.20;50.40
39023;DHT22;25908;51.984;5.928;2023-02-28T16:38:22;7.20;50.80
39023;DHT22;25908;51.984;5.928;2023-02-28T16:40:50;7.20;50.80
39023;DHT22;25908;51.984;5.928;2023-02-28T16:43:19;7.20;50.90
39023;DHT22;25908;51.984;5.928;2023-02-28T16:45:47;7.20;51.00
39023;DHT22;25908;51.984;5.928;2023-02-28T16:48:16;7.10;51.20
39023;DHT22;25908;51.984;5.928;2023-02-28T16:50:42;7.10;51.20
39023;DHT22;25908;51.984;5.928;2023-02-28T16:53:10;7.10;51.50
39023;DHT22;25908;51.984;5.928;2023-02-28T16:55:36;7.10;51.70
39023;DHT22;25908;51.984;5.928;2023-02-28T16:58:02;7.10;51.40
39023;DHT22;25908;51.984;5.928;2023-02-28T17:00:32;7.10;51.40
39023;DHT22;25908;51.984;5.928;2023-02-28T17:02:59;7.00;51.90
39023;DHT22;25908;51.984;5.928;2023-02-28T17:05:26;7.00;52.30
39023;DHT22;25908;51.984;5.928;2023-02-28T17:07:53;7.00;52.30
39023;DHT22;25908;51.984;5.928;2023-02-28T17:10:22;7.00;52.10
39023;DHT22;25908;51.984;5.928;2023-02-28T17:12:49;7.10;52.80
39023;DHT22;25908;51.984;5.928;2023-02-28T17:15:16;7.00;52.10
39023;DHT22;25908;51.984;5.928;2023-02-28T17:17:42;7.00;52.30
39023;DHT22;25908;51.984;5.928;2023-02-28T17:20:16;7.00;52.20
39023;DHT22;25908;51.984;5.928;2023-02-28T17:22:42;7.00;52.80
39023;DHT22;25908;51.984;5.928;2023-02-28T17:25:09;7.00;52.80
39023;DHT22;25908;51.984;5.928;2023-02-28T17:27:35;7.00;52.90
39023;DHT22;25908;51.984;5.928;2023-02-28T17:30:00;7.00;52.40
39023;DHT22;25908;51.984;5.928;2023-02-28T17:32:26;7.00;52.40
39023;DHT22;25908;51.984;5.928;2023-02-28T17:34:53;6.90;52.70
39023;DHT22;25908;51.984;5.928;2023-02-28T17:37:18;7.00;53.00
39023;DHT22;25908;51.984;5.928;2023-02-28T17:39:44;7.00;53.10
39023;DHT22;25908;51.984;5.928;2023-02-28T17:42:10;6.90;52.80
39023;DHT22;25908;51.984;5.928;2023-02-28T17:44:35;6.90;52.80
39023;DHT22;25908;51.984;5.928;2023-02-28T17:47:02;6.90;53.10
39023;DHT22;25908;51.984;5.928;2023-02-28T17:49:28;6.90;53.00
39023;DHT22;25908;51.984;5.928;2023-02-28T17:51:53;6.80;53.10
39023;DHT22;25908;51.984;5.928;2023-02-28T17:54:19;6.80;53.20
39023;DHT22;25908;51.984;5.928;2023-02-28T17:56:45;6.80;53.30
39023;DHT22;25908;51.984;5.928;2023-02-28T17:59:12;6.70;53.20
39023;DHT22;25908;51.984;5.928;2023-02-28T18:01:38;6.70;53.20
39023;DHT22;25908;51.984;5.928;2023-02-28T18:04:03;6.70;53.30
39023;DHT22;25908;51.984;5.928;2023-02-28T18:06:49;6.70;53.40
39023;DHT22;25908;51.984;5.928;2023-02-28T18:09:21;6.60;53.30
39023;DHT22;25908;51.984;5.928;2023-02-28T18:11:51;6.60;54.00